createdAt,value
2023-03-08T00:01:00.733Z,13.60
2023-03-08T00:03:27.872Z,14.98
2023-03-08T00:05:54.557Z,15.63
2023-03-08T00:08:21.292Z,14.70
2023-03-08T00:10:47.961Z,14.75
2023-03-08T00:13:14.628Z,15.68
2023-03-08T00:15:41.375Z,13.23
2023-03-08T00:18:08.108Z,14.63
2023-03-08T00:20:34.871Z,16.17
2023-03-08T00:23:01.569Z,12.40
2023-03-08T00:25:28.268Z,13.30
2023-03-08T00:27:54.965Z,11.98
2023-03-08T00:30:21.773Z,13.63
2023-03-08T00:32:48.441Z,14.10
2023-03-08T00:35:15.227Z,13.63
2023-03-08T00:37:41.940Z,15.63
2023-03-08T00:40:09.863Z,12.50
2023-03-08T00:42:36.527Z,14.60
2023-03-08T00:45:03.610Z,14.70
2023-03-08T00:47:30.339Z,16.05
2023-03-08T00:49:57.190Z,12.63
2023-03-08T00:52:23.929Z,12.23
2023-03-08T00:54:50.595Z,12.77
2023-03-08T00:57:17.409Z,14.10
2023-03-08T00:59:44.145Z,16.95
2023-03-08T01:02:12.280Z,14.95
2023-03-08T01:04:39.920Z,15.20
2023-03-08T01:07:06.665Z,15.05
2023-03-08T01:09:33.321Z,16.42
2023-03-08T01:12:00.227Z,14.18
2023-03-08T01:14:27.051Z,17.40
2023-03-08T01:16:53.745Z,14.82
2023-03-08T01:19:20.666Z,13.38
2023-03-08T01:21:47.375Z,17.33
2023-03-08T01:24:14.176Z,17.02
2023-03-08T01:26:40.884Z,16.65
2023-03-08T01:29:07.612Z,16.20
2023-03-08T01:31:34.828Z,17.52
2023-03-08T01:34:01.950Z,16.15
2023-03-08T01:36:28.888Z,15.23
2023-03-08T01:38:55.797Z,17.65
2023-03-08T01:41:28.656Z,14.52
2023-03-08T01:43:55.859Z,15.68
2023-03-08T01:46:31.503Z,14.85
2023-03-08T01:49:30.106Z,16.88
2023-03-08T01:52:08.950Z,16.20
2023-03-08T01:54:58.550Z,13.85
2023-03-08T01:57:41.448Z,15.75
2023-03-08T02:00:18.496Z,14.98
2023-03-08T02:02:52.789Z,14.20
2023-03-08T02:05:20.462Z,15.45
2023-03-08T02:07:50.329Z,15.48
2023-03-08T02:10:18.280Z,14.07
2023-03-08T02:12:45.921Z,16.35
2023-03-08T02:15:14.939Z,16.70
2023-03-08T02:17:43.670Z,17.15
2023-03-08T02:20:16.961Z,13.85
2023-03-08T02:22:46.123Z,14.32
2023-03-08T02:25:18.357Z,16.63
2023-03-08T02:27:45.783Z,17.10
2023-03-08T02:30:14.887Z,15.20
2023-03-08T02:32:41.778Z,17.98
2023-03-08T02:35:09.171Z,15.73
2023-03-08T02:37:35.873Z,17.25
2023-03-08T02:40:03.030Z,18.92
2023-03-08T02:42:29.699Z,15.00
2023-03-08T02:44:56.398Z,21.30
2023-03-08T02:47:23.083Z,14.77
2023-03-08T02:49:49.807Z,16.10
2023-03-08T02:52:16.522Z,18.38
2023-03-08T02:54:43.249Z,20.65
2023-03-08T02:57:09.913Z,20.27
2023-03-08T02:59:38.028Z,17.38
2023-03-08T03:02:05.280Z,18.02
2023-03-08T03:04:33.467Z,17.95
2023-03-08T03:07:00.718Z,17.67
2023-03-08T03:09:28.299Z,16.95
2023-03-08T03:11:55.295Z,21.33
2023-03-08T03:14:22.274Z,17.27
2023-03-08T03:16:48.971Z,16.80
2023-03-08T03:19:15.791Z,21.45
2023-03-08T03:21:42.488Z,17.58
2023-03-08T03:24:09.395Z,16.48
2023-03-08T03:26:44.332Z,17.90
2023-03-08T03:29:11.780Z,18.73
2023-03-08T03:31:41.023Z,17.15
2023-03-08T03:34:08.901Z,17.60
2023-03-08T03:36:35.754Z,18.92
2023-03-08T03:39:03.925Z,19.38
2023-03-08T03:41:33.235Z,18.35
2023-03-08T03:44:07.679Z,18.38
2023-03-08T03:46:35.032Z,17.90
2023-03-08T03:49:03.061Z,15.75
2023-03-08T03:51:34.923Z,18.80
2023-03-08T03:54:14.158Z,16.35
2023-03-08T03:56:43.197Z,17.17
2023-03-08T03:59:10.033Z,22.95
2023-03-08T04:01:37.220Z,18.33
2023-03-08T04:04:13.064Z,21.80
2023-03-08T04:06:42.902Z,17.73
2023-03-08T04:09:18.304Z,18.45
2023-03-08T04:11:51.046Z,16.80
2023-03-08T04:14:20.685Z,19.40
2023-03-08T04:16:48.537Z,18.60
2023-03-08T04:19:24.073Z,19.15
2023-03-08T04:21:53.682Z,17.38
2023-03-08T04:24:23.978Z,20.20
2023-03-08T04:26:54.365Z,16.48
2023-03-08T04:29:22.104Z,16.90
2023-03-08T04:31:48.872Z,18.60
2023-03-08T04:34:19.068Z,18.83
2023-03-08T04:36:48.910Z,21.08
2023-03-08T04:39:15.790Z,18.15
2023-03-08T04:41:42.545Z,16.30
2023-03-08T04:44:15.203Z,18.83
2023-03-08T04:46:46.954Z,17.70
2023-03-08T04:49:19.966Z,16.50
2023-03-08T04:54:19.452Z,15.73
2023-03-08T04:56:51.514Z,18.08
2023-03-08T04:59:20.083Z,16.10
2023-03-08T05:01:46.938Z,18.83
2023-03-08T05:04:14.992Z,19.95
2023-03-08T05:06:42.287Z,17.70
2023-03-08T05:09:12.214Z,20.30
2023-03-08T05:11:41.175Z,20.30
2023-03-08T05:14:09.724Z,17.08
2023-03-08T05:16:36.538Z,18.00
2023-03-08T05:19:03.752Z,15.70
2023-03-08T05:21:36.073Z,19.10
2023-03-08T05:24:02.867Z,17.27
2023-03-08T05:26:33.324Z,18.00
2023-03-08T05:29:03.942Z,17.35
2023-03-08T05:31:31.762Z,20.08
2023-03-08T05:34:00.552Z,22.98
2023-03-08T05:36:34.393Z,24.13
2023-03-08T05:39:02.135Z,19.05
2023-03-08T05:41:38.553Z,24.58
2023-03-08T05:44:05.700Z,18.08
2023-03-08T05:46:34.651Z,17.17
2023-03-08T05:49:02.872Z,20.58
2023-03-08T05:51:33.337Z,16.48
2023-03-08T05:54:00.488Z,20.38
2023-03-08T05:56:27.326Z,21.33
2023-03-08T05:59:08.992Z,22.40
2023-03-08T06:01:36.430Z,18.17
2023-03-08T06:04:12.742Z,19.08
2023-03-08T06:06:41.643Z,16.75
2023-03-08T06:09:08.563Z,22.08
2023-03-08T06:11:38.478Z,20.80
2023-03-08T06:14:05.768Z,19.08
2023-03-08T06:16:34.004Z,17.60
2023-03-08T06:19:02.463Z,19.45
2023-03-08T06:21:30.126Z,18.40
2023-03-08T06:24:00.488Z,18.58
2023-03-08T06:26:28.210Z,21.02
2023-03-08T06:28:55.317Z,22.70
2023-03-08T06:31:25.838Z,20.00
2023-03-08T06:33:52.567Z,22.92
2023-03-08T06:36:23.649Z,18.20
2023-03-08T06:38:50.752Z,23.17
2023-03-08T06:41:20.013Z,20.42
2023-03-08T06:43:50.787Z,18.15
2023-03-08T06:46:19.377Z,20.20
2023-03-08T06:48:47.388Z,18.02
2023-03-08T06:51:15.446Z,21.35
2023-03-08T06:53:44.747Z,17.92
2023-03-08T06:56:15.231Z,18.55
2023-03-08T06:58:42.146Z,17.80
2023-03-08T07:01:09.739Z,17.05
2023-03-08T07:03:37.156Z,17.17
2023-03-08T07:06:07.229Z,17.83
2023-03-08T07:08:34.893Z,18.50
2023-03-08T07:11:01.672Z,17.55
2023-03-08T07:13:29.711Z,14.82
2023-03-08T07:15:57.341Z,15.75
2023-03-08T07:18:25.046Z,18.02
2023-03-08T07:21:00.573Z,17.40
2023-03-08T07:23:27.380Z,18.35
2023-03-08T07:25:54.197Z,17.60
2023-03-08T07:28:21.696Z,19.35
2023-03-08T07:30:49.834Z,20.52
2023-03-08T07:33:17.640Z,23.65
2023-03-08T07:35:44.638Z,18.73
2023-03-08T07:38:14.735Z,19.23
2023-03-08T07:40:42.102Z,17.08
2023-03-08T07:43:08.961Z,17.80
2023-03-08T07:45:52.767Z,15.15
2023-03-08T07:48:19.438Z,19.98
2023-03-08T07:50:46.164Z,17.98
2023-03-08T07:53:12.887Z,20.10
2023-03-08T07:55:39.623Z,20.00
2023-03-08T07:58:06.461Z,17.67
2023-03-08T08:00:33.473Z,15.82
2023-03-08T08:03:00.207Z,15.40
2023-03-08T08:05:27.055Z,17.05
2023-03-08T08:07:53.997Z,16.38
2023-03-08T08:10:20.733Z,17.05
2023-03-08T08:12:47.427Z,14.35
2023-03-08T08:15:14.227Z,16.17
2023-03-08T08:17:40.908Z,15.85
2023-03-08T08:20:08.195Z,17.17
2023-03-08T08:22:36.516Z,17.85
2023-03-08T08:25:05.601Z,15.73
2023-03-08T08:27:32.361Z,16.00
2023-03-08T08:29:59.396Z,18.73
2023-03-08T08:32:26.847Z,19.15
2023-03-08T08:34:53.581Z,18.48
2023-03-08T08:37:20.580Z,19.48
2023-03-08T08:39:47.296Z,17.85
2023-03-08T08:42:13.964Z,16.63
2023-03-08T08:44:40.616Z,15.65
2023-03-08T08:47:07.326Z,21.75
2023-03-08T08:49:34.009Z,18.38
2023-03-08T08:52:00.686Z,27.50
2023-03-08T08:54:27.449Z,29.35
2023-03-08T08:56:54.274Z,28.77
2023-03-08T08:59:20.981Z,30.50
2023-03-08T09:01:47.936Z,21.58
2023-03-08T09:04:16.704Z,16.30
2023-03-08T09:06:43.827Z,17.77
2023-03-08T09:09:10.582Z,20.58
2023-03-08T09:11:48.520Z,16.02
2023-03-08T09:14:20.577Z,17.98
2023-03-08T09:16:47.669Z,18.30
2023-03-08T09:19:15.432Z,18.60
2023-03-08T09:21:42.165Z,14.90
2023-03-08T09:24:10.412Z,18.63
2023-03-08T09:26:37.325Z,15.70
2023-03-08T09:29:07.623Z,17.17
2023-03-08T09:31:37.172Z,15.52
2023-03-08T09:34:08.504Z,16.60
2023-03-08T09:36:41.803Z,16.85
2023-03-08T09:39:11.260Z,16.73
2023-03-08T09:41:44.028Z,14.93
2023-03-08T09:44:46.196Z,15.00
2023-03-08T09:47:32.474Z,17.02
2023-03-08T09:50:15.739Z,13.30
2023-03-08T09:52:50.516Z,13.52
2023-03-08T09:55:33.035Z,20.00
2023-03-08T09:58:04.761Z,15.20
2023-03-08T10:00:34.128Z,17.13
2023-03-08T10:03:30.988Z,18.17
2023-03-08T10:06:39.845Z,16.10
2023-03-08T10:09:30.451Z,13.88
2023-03-08T10:12:15.947Z,12.93
2023-03-08T10:14:50.778Z,13.30
2023-03-08T10:17:21.321Z,9.95
2023-03-08T10:20:09.210Z,10.93
2023-03-08T10:22:42.349Z,9.75
2023-03-08T10:25:26.909Z,9.68
2023-03-08T10:27:55.584Z,12.23
2023-03-08T10:30:35.181Z,11.02
2023-03-08T10:33:07.997Z,10.52
2023-03-08T10:35:37.937Z,9.10
2023-03-08T10:38:14.664Z,7.95
2023-03-08T10:40:41.375Z,8.38
2023-03-08T10:43:35.537Z,9.02
2023-03-08T10:46:05.567Z,7.80
2023-03-08T10:48:32.829Z,7.82
2023-03-08T10:51:02.001Z,7.55
2023-03-08T10:53:29.964Z,9.52
2023-03-08T10:55:58.919Z,8.35
2023-03-08T10:58:33.519Z,6.95
2023-03-08T11:01:20.480Z,6.57
2023-03-08T11:03:57.536Z,8.82
2023-03-08T11:06:25.404Z,8.10
2023-03-08T11:08:55.939Z,7.05
2023-03-08T11:11:22.741Z,6.93
2023-03-08T11:13:51.927Z,6.75
2023-03-08T11:16:42.089Z,10.25
2023-03-08T11:19:26.693Z,9.60
2023-03-08T11:22:03.547Z,7.97
2023-03-08T11:25:04.375Z,6.68
2023-03-08T11:27:45.843Z,7.28
2023-03-08T11:30:43.671Z,7.10
2023-03-08T11:33:39.229Z,5.88
2023-03-08T11:36:13.272Z,5.20
2023-03-08T11:38:40.844Z,5.15
2023-03-08T11:41:43.508Z,2.72
2023-03-08T11:44:27.015Z,5.18
2023-03-08T11:46:59.916Z,3.38
2023-03-08T11:49:47.496Z,2.60
2023-03-08T11:52:57.724Z,2.17
2023-03-08T11:56:03.129Z,3.45
2023-03-08T11:58:37.867Z,3.40
2023-03-08T12:01:15.885Z,3.55
2023-03-08T12:03:46.477Z,1.85
2023-03-08T12:06:32.360Z,1.88
2023-03-08T12:09:26.076Z,1.33
2023-03-08T12:12:10.802Z,1.80
2023-03-08T12:14:52.394Z,1.98
2023-03-08T12:17:31.414Z,3.17
2023-03-08T12:19:58.351Z,2.03
2023-03-08T12:22:47.604Z,1.92
2023-03-08T12:25:20.999Z,2.25
2023-03-08T12:28:00.590Z,2.75
2023-03-08T12:31:01.293Z,3.83
2023-03-08T12:33:32.195Z,3.72
2023-03-08T12:36:05.241Z,2.72
2023-03-08T12:38:42.427Z,4.50
2023-03-08T12:41:30.278Z,3.13
2023-03-08T12:44:24.701Z,1.67
2023-03-08T12:47:22.596Z,2.55
2023-03-08T12:49:53.486Z,1.95
2023-03-08T12:52:20.280Z,2.28
2023-03-08T12:55:01.028Z,1.55
2023-03-08T12:57:34.063Z,2.92
2023-03-08T13:00:08.847Z,1.60
2023-03-08T13:02:35.991Z,1.40
2023-03-08T13:05:17.498Z,1.50
2023-03-08T13:08:04.172Z,1.25
2023-03-08T13:10:37.652Z,1.88
2023-03-08T13:13:10.198Z,1.90
2023-03-08T13:18:08.770Z,3.75
2023-03-08T13:21:00.225Z,1.85
2023-03-08T13:23:35.246Z,1.63
2023-03-08T13:26:23.545Z,1.20
2023-03-08T13:28:50.418Z,4.00
2023-03-08T13:31:22.996Z,3.28
2023-03-08T13:36:27.087Z,3.53
2023-03-08T13:39:08.464Z,2.75
2023-03-08T13:41:41.684Z,1.58
2023-03-08T13:44:21.815Z,1.90
2023-03-08T13:46:51.357Z,2.50
2023-03-08T13:49:32.510Z,2.00
2023-03-08T13:52:01.641Z,3.78
2023-03-08T13:54:30.443Z,2.45
2023-03-08T13:57:00.352Z,2.75
2023-03-08T13:59:27.497Z,1.77
2023-03-08T14:01:55.063Z,2.30
2023-03-08T14:04:27.906Z,2.15
2023-03-08T14:07:00.573Z,2.65
2023-03-08T14:12:02.155Z,2.30
2023-03-08T14:14:43.157Z,2.63
2023-03-08T14:17:23.212Z,3.78
2023-03-08T14:20:01.961Z,2.78
2023-03-08T14:22:39.132Z,3.05
2023-03-08T14:25:20.101Z,3.20
2023-03-08T14:27:46.894Z,2.78
2023-03-08T14:30:22.744Z,3.58
2023-03-08T14:33:07.095Z,2.33
2023-03-08T14:35:38.505Z,2.95
2023-03-08T14:38:27.493Z,2.30
2023-03-08T14:40:54.951Z,2.47
2023-03-08T14:43:24.797Z,2.03
2023-03-08T14:45:56.811Z,2.10
2023-03-08T14:48:37.309Z,2.38
2023-03-08T14:51:05.367Z,2.92
2023-03-08T14:53:39.270Z,1.73
2023-03-08T14:56:14.497Z,2.58
2023-03-08T14:58:44.457Z,1.98
2023-03-08T15:01:11.163Z,1.75
2023-03-08T15:03:37.993Z,2.75
2023-03-08T15:06:13.980Z,8.57
2023-03-08T15:08:40.774Z,3.53
2023-03-08T15:11:07.907Z,1.80
2023-03-08T15:13:34.638Z,1.75
2023-03-08T15:16:01.337Z,1.70
2023-03-08T15:18:28.060Z,1.98
2023-03-08T15:20:54.961Z,1.52
2023-03-08T15:23:25.148Z,1.45
2023-03-08T15:25:52.291Z,3.13
2023-03-08T15:28:21.259Z,1.25
2023-03-08T15:30:49.180Z,2.63
2023-03-08T15:33:15.902Z,1.50
2023-03-08T15:35:42.709Z,1.95
2023-03-08T15:38:15.960Z,1.95
2023-03-08T15:40:43.419Z,2.03
2023-03-08T15:43:10.653Z,3.33
2023-03-08T15:45:37.848Z,5.65
2023-03-08T15:48:07.378Z,3.95
2023-03-08T15:50:34.829Z,1.80
2023-03-08T15:53:01.619Z,2.65
2023-03-08T15:55:29.854Z,11.38
2023-03-08T15:57:57.887Z,3.47
2023-03-08T16:00:25.520Z,2.05
2023-03-08T16:02:53.636Z,3.92
2023-03-08T16:05:23.250Z,2.33
2023-03-08T16:07:59.310Z,2.53
2023-03-08T16:10:27.573Z,1.98
2023-03-08T16:12:54.286Z,2.15
2023-03-08T16:15:21.416Z,2.40
2023-03-08T16:17:48.154Z,2.20
2023-03-08T16:20:15.878Z,1.63
2023-03-08T16:22:42.849Z,2.42
2023-03-08T16:25:10.166Z,1.67
2023-03-08T16:27:38.272Z,1.17
2023-03-08T16:30:05.773Z,1.77
2023-03-08T16:32:32.959Z,2.00
2023-03-08T16:35:00.846Z,1.48
2023-03-08T16:37:28.317Z,3.20
2023-03-08T16:39:57.377Z,0.80
2023-03-08T16:42:24.452Z,1.40
2023-03-08T16:44:53.701Z,3.25
2023-03-08T16:47:22.123Z,0.60
2023-03-08T16:49:49.052Z,0.98
2023-03-08T16:52:17.058Z,1.38
2023-03-08T16:54:44.195Z,1.92
2023-03-08T16:57:18.500Z,0.65
2023-03-08T16:59:46.197Z,0.90
2023-03-08T17:02:15.161Z,1.60
2023-03-08T17:04:41.919Z,1.20
2023-03-08T17:07:10.262Z,0.73
2023-03-08T17:09:37.841Z,1.38
2023-03-08T17:12:05.698Z,3.33
2023-03-08T17:14:34.797Z,2.05
2023-03-08T17:17:02.250Z,0.95
2023-03-08T17:19:28.973Z,0.80
2023-03-08T17:21:55.802Z,0.70
2023-03-08T17:24:22.599Z,0.82
2023-03-08T17:26:52.625Z,2.25
2023-03-08T17:29:19.726Z,1.00
2023-03-08T17:31:46.578Z,2.33
2023-03-08T17:34:13.642Z,0.75
2023-03-08T17:36:40.842Z,0.95
2023-03-08T17:39:07.849Z,1.35
2023-03-08T17:41:35.702Z,1.23
2023-03-08T17:44:02.408Z,1.25
2023-03-08T17:46:29.446Z,0.85
2023-03-08T17:48:56.394Z,0.93
2023-03-08T17:51:26.332Z,0.70
2023-03-08T17:53:54.114Z,1.63
2023-03-08T17:56:26.259Z,0.85
2023-03-08T17:58:54.666Z,1.00
2023-03-08T18:01:24.796Z,1.88
2023-03-08T18:03:52.371Z,3.10
2023-03-08T18:06:26.556Z,1.67
2023-03-08T18:08:53.508Z,1.20
2023-03-08T18:11:20.491Z,1.15
2023-03-08T18:13:47.237Z,0.40
2023-03-08T18:16:14.093Z,0.95
2023-03-08T18:18:40.856Z,1.30
2023-03-08T18:21:13.877Z,1.27
2023-03-08T18:23:43.215Z,2.22
2023-03-08T18:26:11.721Z,2.25
2023-03-08T18:28:38.520Z,0.88
2023-03-08T18:31:10.629Z,0.90
2023-03-08T18:33:37.418Z,1.90
2023-03-08T18:36:04.546Z,0.68
2023-03-08T18:38:31.250Z,2.25
2023-03-08T18:40:57.997Z,3.53
2023-03-08T18:43:25.401Z,2.10
2023-03-08T18:45:56.516Z,3.17
2023-03-08T18:48:24.005Z,2.35
2023-03-08T18:50:50.800Z,1.75
2023-03-08T18:53:18.207Z,2.83
2023-03-08T18:55:59.100Z,1.92
2023-03-08T18:58:26.270Z,2.42
2023-03-08T19:00:56.791Z,1.55
2023-03-08T19:03:23.657Z,6.80
2023-03-08T19:05:50.552Z,4.03
2023-03-08T19:08:17.276Z,3.53
2023-03-08T19:10:43.943Z,1.33
2023-03-08T19:13:10.667Z,8.07
2023-03-08T19:15:38.002Z,2.28
2023-03-08T19:18:05.643Z,1.60
2023-03-08T19:20:40.073Z,1.38
2023-03-08T19:23:08.700Z,2.28
2023-03-08T19:26:00.100Z,0.93
2023-03-08T19:28:27.206Z,5.28
2023-03-08T19:30:53.932Z,6.30
2023-03-08T19:33:30.495Z,7.72
2023-03-08T19:35:58.815Z,3.38
2023-03-08T19:38:25.572Z,7.78
2023-03-08T19:40:52.299Z,6.05
2023-03-08T19:43:18.976Z,4.45
2023-03-08T19:45:50.082Z,4.20
2023-03-08T19:48:16.852Z,2.28
2023-03-08T19:50:46.797Z,1.35
2023-03-08T19:53:13.631Z,2.58
2023-03-08T19:55:51.603Z,4.10
2023-03-08T19:58:18.848Z,2.55
2023-03-08T20:00:46.851Z,2.65
2023-03-08T20:03:15.356Z,11.07
2023-03-08T20:05:46.977Z,1.50
2023-03-08T20:08:14.288Z,7.03
2023-03-08T20:10:41.228Z,4.28
2023-03-08T20:13:07.933Z,3.50
2023-03-08T20:15:34.647Z,4.53
2023-03-08T20:18:01.952Z,3.83
2023-03-08T20:20:29.774Z,4.80
2023-03-08T20:31:12.887Z,6.43
2023-03-08T20:42:34.761Z,3.13
2023-03-08T20:45:03.052Z,22.15
2023-03-08T20:47:57.282Z,20.52
2023-03-08T20:50:25.595Z,24.35
2023-03-08T20:52:53.091Z,18.92
2023-03-08T20:55:20.093Z,4.68
2023-03-08T20:57:48.277Z,14.63
2023-03-08T21:00:16.313Z,20.00
2023-03-08T21:02:43.131Z,17.08
2023-03-08T21:05:11.016Z,9.98
2023-03-08T21:07:40.762Z,13.00
2023-03-08T21:10:09.918Z,10.68
2023-03-08T21:12:38.994Z,13.73
2023-03-08T21:15:06.876Z,17.00
2023-03-08T21:17:36.013Z,3.72
2023-03-08T21:20:03.065Z,10.52
2023-03-08T21:22:31.654Z,4.22
2023-03-08T21:24:58.315Z,2.08
2023-03-08T21:27:25.079Z,1.67
2023-03-08T21:29:54.718Z,1.50
2023-03-08T21:32:36.310Z,1.08
2023-03-08T21:35:08.321Z,1.70
2023-03-08T21:37:38.916Z,1.60
2023-03-08T21:40:07.163Z,3.33
2023-03-08T21:42:33.948Z,1.98
2023-03-08T21:45:00.758Z,1.10
2023-03-08T21:47:27.484Z,0.50
2023-03-08T21:49:54.257Z,0.55
2023-03-08T21:52:20.933Z,0.50
2023-03-08T21:54:47.704Z,1.00
2023-03-08T21:57:14.391Z,0.50
2023-03-08T21:59:41.074Z,0.60
2023-03-08T22:02:14.852Z,0.93
2023-03-08T22:04:41.753Z,1.05
2023-03-08T22:07:08.546Z,0.82
2023-03-08T22:09:35.398Z,1.50
2023-03-08T22:12:02.294Z,1.05
2023-03-08T22:14:33.382Z,0.57
2023-03-08T22:17:02.826Z,0.65
2023-03-08T22:19:29.634Z,1.15
2023-03-08T22:21:58.443Z,0.90
2023-03-08T22:24:25.290Z,0.88
2023-03-08T22:26:52.040Z,1.85
2023-03-08T22:29:18.733Z,1.73
2023-03-08T22:31:45.496Z,2.35
2023-03-08T22:34:12.208Z,0.55
2023-03-08T22:36:38.927Z,0.60
2023-03-08T22:39:05.679Z,1.25
2023-03-08T22:41:32.456Z,1.45
2023-03-08T22:43:59.263Z,0.60
2023-03-08T22:46:27.444Z,0.93
2023-03-08T22:48:57.527Z,0.88
2023-03-08T22:51:24.997Z,1.55
2023-03-08T22:53:51.724Z,2.05
2023-03-08T22:56:21.628Z,1.67
2023-03-08T22:58:48.428Z,1.70
2023-03-08T23:01:18.522Z,0.85
2023-03-08T23:03:46.402Z,1.27
2023-03-08T23:06:13.093Z,3.03
2023-03-08T23:08:39.772Z,0.57
2023-03-08T23:11:07.183Z,0.90
2023-03-08T23:13:34.829Z,3.90
2023-03-08T23:16:02.281Z,0.93
2023-03-08T23:18:29.234Z,0.80
2023-03-08T23:20:56.058Z,2.22
2023-03-08T23:25:10.112Z,1.10
2023-03-08T23:27:36.904Z,1.15
2023-03-08T23:30:04.963Z,1.92
2023-03-08T23:32:31.793Z,2.08
2023-03-08T23:34:58.784Z,0.80
2023-03-08T23:37:25.643Z,2.35
2023-03-08T23:39:52.307Z,0.65
2023-03-08T23:42:18.980Z,0.77
2023-03-08T23:44:45.641Z,0.50
2023-03-08T23:47:12.313Z,0.43
2023-03-08T23:49:39.043Z,0.82
2023-03-08T23:52:05.860Z,1.20
2023-03-08T23:54:32.536Z,0.90
2023-03-08T23:56:59.203Z,1.67
2023-03-08T23:59:26.170Z,2.50
